sensor_id;sensor_type;location;lat;lon;timestamp;P1;durP1;ratioP1;P2;durP2;ratioP2
57191;SDS011;43052;52.588;13.396;2022-08-19T00:00:26;14.75;;;13.30;;
57191;SDS011;43052;52.588;13.396;2022-08-19T00:02:52;15.07;;;13.52;;
57191;SDS011;43052;52.588;13.396;2022-08-19T00:05:18;14.68;;;13.18;;
57191;SDS011;43052;52.588;13.396;2022-08-19T00:07:45;15.68;;;14.25;;
57191;SDS011;43052;52.588;13.396;2022-08-19T00:10:11;14.57;;;13.18;;
57191;SDS011;43052;52.588;13.396;2022-08-19T00:12:38;15.52;;;14.02;;
57191;SDS011;43052;52.588;13.396;2022-08-19T00:15:04;15.20;;;13.77;;
57191;SDS011;43052;52.588;13.396;2022-08-19T00:17:33;15.93;;;14.32;;
57191;SDS011;43052;52.588;13.396;2022-08-19T00:19:58;15.88;;;14.38;;
57191;SDS011;43052;52.588;13.396;2022-08-19T00:22:24;15.80;;;14.30;;
57191;SDS011;43052;52.588;13.396;2022-08-19T00:24:51;15.90;;;14.40;;
57191;SDS011;43052;52.588;13.396;2022-08-19T00:27:17;15.23;;;13.73;;
57191;SDS011;43052;52.588;13.396;2022-08-19T00:29:42;14.68;;;13.23;;
57191;SDS011;43052;52.588;13.396;2022-08-19T00:32:07;17.08;;;15.40;;
57191;SDS011;43052;52.588;13.396;2022-08-19T00:34:32;17.20;;;15.50;;
57191;SDS011;43052;52.588;13.396;2022-08-19T00:36:58;16.27;;;14.57;;
57191;SDS011;43052;52.588;13.396;2022-08-19T00:39:24;15.68;;;14.18;;
57191;SDS011;43052;52.588;13.396;2022-08-19T00:41:50;14.88;;;13.32;;
57191;SDS011;43052;52.588;13.396;2022-08-19T00:44:20;16.13;;;14.43;;
57191;SDS011;43052;52.588;13.396;2022-08-19T00:46:48;15.10;;;13.60;;
57191;SDS011;43052;52.588;13.396;2022-08-19T00:49:19;14.80;;;13.40;;
57191;SDS011;43052;52.588;13.396;2022-08-19T00:51:49;15.55;;;14.00;;
57191;SDS011;43052;52.588;13.396;2022-08-19T00:54:18;16.58;;;14.98;;
57191;SDS011;43052;52.588;13.396;2022-08-19T00:56:44;16.75;;;15.15;;
57191;SDS011;43052;52.588;13.396;2022-08-19T00:59:10;15.00;;;13.43;;
57191;SDS011;43052;52.588;13.396;2022-08-19T01:01:37;16.88;;;15.20;;
57191;SDS011;43052;52.588;13.396;2022-08-19T01:04:04;16.38;;;14.68;;
57191;SDS011;43052;52.588;13.396;2022-08-19T01:06:30;15.68;;;13.90;;
57191;SDS011;43052;52.588;13.396;2022-08-19T01:08:57;16.60;;;15.00;;
57191;SDS011;43052;52.588;13.396;2022-08-19T01:11:23;15.95;;;14.45;;
57191;SDS011;43052;52.588;13.396;2022-08-19T01:13:48;17.27;;;15.57;;
57191;SDS011;43052;52.588;13.396;2022-08-19T01:16:17;15.98;;;14.45;;
57191;SDS011;43052;52.588;13.396;2022-08-19T01:18:45;16.48;;;14.68;;
57191;SDS011;43052;52.588;13.396;2022-08-19T01:21:12;16.40;;;14.85;;
57191;SDS011;43052;52.588;13.396;2022-08-19T01:23:49;16.45;;;14.88;;
57191;SDS011;43052;52.588;13.396;2022-08-19T01:26:17;16.40;;;14.70;;
57191;SDS011;43052;52.588;13.396;2022-08-19T01:28:45;16.02;;;14.40;;
57191;SDS011;43052;52.588;13.396;2022-08-19T01:31:13;16.92;;;15.32;;
57191;SDS011;43052;52.588;13.396;2022-08-19T01:33:45;18.80;;;16.88;;
57191;SDS011;43052;52.588;13.396;2022-08-19T01:36:13;16.90;;;15.27;;
57191;SDS011;43052;52.588;13.396;2022-08-19T01:38:41;17.10;;;15.35;;
57191;SDS011;43052;52.588;13.396;2022-08-19T01:41:08;16.88;;;15.10;;
57191;SDS011;43052;52.588;13.396;2022-08-19T01:43:35;18.13;;;16.23;;
57191;SDS011;43052;52.588;13.396;2022-08-19T01:46:01;16.63;;;14.82;;
57191;SDS011;43052;52.588;13.396;2022-08-19T01:48:28;16.38;;;14.82;;
57191;SDS011;43052;52.588;13.396;2022-08-19T01:50:58;17.25;;;15.45;;
57191;SDS011;43052;52.588;13.396;2022-08-19T01:53:24;16.63;;;15.13;;
57191;SDS011;43052;52.588;13.396;2022-08-19T01:55:49;15.45;;;13.88;;
57191;SDS011;43052;52.588;13.396;2022-08-19T01:58:16;15.57;;;14.13;;
57191;SDS011;43052;52.588;13.396;2022-08-19T02:00:46;16.55;;;14.90;;
57191;SDS011;43052;52.588;13.396;2022-08-19T02:03:12;17.15;;;15.50;;
57191;SDS011;43052;52.588;13.396;2022-08-19T02:05:38;16.67;;;15.15;;
57191;SDS011;43052;52.588;13.396;2022-08-19T02:08:05;16.27;;;14.68;;
57191;SDS011;43052;52.588;13.396;2022-08-19T02:10:30;17.60;;;15.95;;
57191;SDS011;43052;52.588;13.396;2022-08-19T02:12:56;18.20;;;16.30;;
57191;SDS011;43052;52.588;13.396;2022-08-19T02:15:22;16.45;;;14.75;;
57191;SDS011;43052;52.588;13.396;2022-08-19T02:17:47;17.35;;;14.85;;
57191;SDS011;43052;52.588;13.396;2022-08-19T02:20:13;18.35;;;16.27;;
57191;SDS011;43052;52.588;13.396;2022-08-19T02:22:39;16.45;;;14.73;;
57191;SDS011;43052;52.588;13.396;2022-08-19T02:25:07;17.60;;;15.52;;
57191;SDS011;43052;52.588;13.396;2022-08-19T02:27:33;16.75;;;15.07;;
57191;SDS011;43052;52.588;13.396;2022-08-19T02:29:59;16.58;;;14.88;;
57191;SDS011;43052;52.588;13.396;2022-08-19T02:32:24;16.23;;;14.63;;
57191;SDS011;43052;52.588;13.396;2022-08-19T02:34:50;16.92;;;15.13;;
57191;SDS011;43052;52.588;13.396;2022-08-19T02:37:15;16.42;;;14.68;;
57191;SDS011;43052;52.588;13.396;2022-08-19T02:39:59;15.88;;;14.25;;
57191;SDS011;43052;52.588;13.396;2022-08-19T02:42:24;17.77;;;15.77;;
57191;SDS011;43052;52.588;13.396;2022-08-19T02:44:50;17.27;;;14.88;;
57191;SDS011;43052;52.588;13.396;2022-08-19T02:47:16;15.75;;;14.23;;
57191;SDS011;43052;52.588;13.396;2022-08-19T02:49:43;16.20;;;14.52;;
57191;SDS011;43052;52.588;13.396;2022-08-19T02:52:08;16.45;;;14.85;;
57191;SDS011;43052;52.588;13.396;2022-08-19T02:54:34;16.05;;;14.43;;
57191;SDS011;43052;52.588;13.396;2022-08-19T02:56:59;17.80;;;15.30;;
57191;SDS011;43052;52.588;13.396;2022-08-19T02:59:24;17.23;;;15.43;;
57191;SDS011;43052;52.588;13.396;2022-08-19T03:01:51;17.33;;;15.52;;
57191;SDS011;43052;52.588;13.396;2022-08-19T03:04:17;17.75;;;15.02;;
57191;SDS011;43052;52.588;13.396;2022-08-19T03:06:43;16.67;;;14.98;;
57191;SDS011;43052;52.588;13.396;2022-08-19T03:09:10;18.13;;;16.30;;
57191;SDS011;43052;52.588;13.396;2022-08-19T03:11:36;18.02;;;16.20;;
57191;SDS011;43052;52.588;13.396;2022-08-19T03:14:02;17.25;;;15.48;;
57191;SDS011;43052;52.588;13.396;2022-08-19T03:16:30;17.02;;;15.30;;
57191;SDS011;43052;52.588;13.396;2022-08-19T03:18:57;18.35;;;16.58;;
57191;SDS011;43052;52.588;13.396;2022-08-19T03:21:26;18.45;;;15.30;;
57191;SDS011;43052;52.588;13.396;2022-08-19T03:23:56;17.27;;;15.32;;
57191;SDS011;43052;52.588;13.396;2022-08-19T03:26:23;17.45;;;15.75;;
57191;SDS011;43052;52.588;13.396;2022-08-19T03:28:48;17.10;;;15.35;;
57191;SDS011;43052;52.588;13.396;2022-08-19T03:31:15;18.23;;;16.30;;
57191;SDS011;43052;52.588;13.396;2022-08-19T03:33:42;17.75;;;16.00;;
57191;SDS011;43052;52.588;13.396;2022-08-19T03:36:18;17.15;;;15.35;;
57191;SDS011;43052;52.588;13.396;2022-08-19T03:38:46;17.50;;;15.70;;
57191;SDS011;43052;52.588;13.396;2022-08-19T03:41:18;17.67;;;15.77;;
57191;SDS011;43052;52.588;13.396;2022-08-19T03:43:51;17.17;;;14.93;;
57191;SDS011;43052;52.588;13.396;2022-08-19T03:46:18;17.17;;;15.48;;
57191;SDS011;43052;52.588;13.396;2022-08-19T03:48:46;16.55;;;14.77;;
57191;SDS011;43052;52.588;13.396;2022-08-19T03:51:16;16.55;;;14.88;;
57191;SDS011;43052;52.588;13.396;2022-08-19T03:53:44;16.42;;;14.82;;
57191;SDS011;43052;52.588;13.396;2022-08-19T03:56:10;16.95;;;15.30;;
57191;SDS011;43052;52.588;13.396;2022-08-19T03:58:36;16.80;;;15.10;;
57191;SDS011;43052;52.588;13.396;2022-08-19T04:01:02;17.60;;;15.82;;
57191;SDS011;43052;52.588;13.396;2022-08-19T04:03:32;17.65;;;15.85;;
57191;SDS011;43052;52.588;13.396;2022-08-19T04:05:58;17.48;;;15.63;;
57191;SDS011;43052;52.588;13.396;2022-08-19T04:08:23;17.63;;;16.02;;
57191;SDS011;43052;52.588;13.396;2022-08-19T04:10:49;17.35;;;15.57;;
57191;SDS011;43052;52.588;13.396;2022-08-19T04:13:15;17.95;;;16.23;;
57191;SDS011;43052;52.588;13.396;2022-08-19T04:15:42;18.95;;;16.23;;
57191;SDS011;43052;52.588;13.396;2022-08-19T04:18:09;18.60;;;16.77;;
57191;SDS011;43052;52.588;13.396;2022-08-19T04:20:53;18.30;;;16.40;;
57191;SDS011;43052;52.588;13.396;2022-08-19T04:23:18;18.95;;;16.88;;
57191;SDS011;43052;52.588;13.396;2022-08-19T04:25:43;18.25;;;16.50;;
57191;SDS011;43052;52.588;13.396;2022-08-19T04:28:10;18.85;;;16.95;;
57191;SDS011;43052;52.588;13.396;2022-08-19T04:30:40;18.88;;;16.98;;
57191;SDS011;43052;52.588;13.396;2022-08-19T04:33:17;19.40;;;17.30;;
57191;SDS011;43052;52.588;13.396;2022-08-19T04:35:46;18.50;;;16.70;;
57191;SDS011;43052;52.588;13.396;2022-08-19T04:38:13;19.00;;;16.85;;
57191;SDS011;43052;52.588;13.396;2022-08-19T04:40:41;17.15;;;15.43;;
57191;SDS011;43052;52.588;13.396;2022-08-19T04:43:31;19.25;;;16.60;;
57191;SDS011;43052;52.588;13.396;2022-08-19T04:45:58;18.27;;;15.82;;
57191;SDS011;43052;52.588;13.396;2022-08-19T04:48:29;18.45;;;16.52;;
57191;SDS011;43052;52.588;13.396;2022-08-19T04:50:55;18.42;;;16.50;;
57191;SDS011;43052;52.588;13.396;2022-08-19T04:53:25;18.08;;;16.38;;
57191;SDS011;43052;52.588;13.396;2022-08-19T04:55:53;17.67;;;15.98;;
57191;SDS011;43052;52.588;13.396;2022-08-19T04:58:18;17.25;;;15.45;;
57191;SDS011;43052;52.588;13.396;2022-08-19T05:00:44;17.48;;;15.63;;
57191;SDS011;43052;52.588;13.396;2022-08-19T05:03:09;17.75;;;15.85;;
57191;SDS011;43052;52.588;13.396;2022-08-19T05:05:38;16.80;;;15.05;;
57191;SDS011;43052;52.588;13.396;2022-08-19T05:08:07;16.27;;;14.68;;
57191;SDS011;43052;52.588;13.396;2022-08-19T05:10:35;17.25;;;15.57;;
57191;SDS011;43052;52.588;13.396;2022-08-19T05:13:01;16.20;;;14.68;;
57191;SDS011;43052;52.588;13.396;2022-08-19T05:15:27;15.52;;;13.93;;
57191;SDS011;43052;52.588;13.396;2022-08-19T05:17:52;17.45;;;15.55;;
57191;SDS011;43052;52.588;13.396;2022-08-19T05:20:39;15.20;;;13.63;;
57191;SDS011;43052;52.588;13.396;2022-08-19T05:23:23;13.95;;;12.65;;
57191;SDS011;43052;52.588;13.396;2022-08-19T05:25:49;14.35;;;12.95;;
57191;SDS011;43052;52.588;13.396;2022-08-19T05:28:15;13.75;;;12.35;;
57191;SDS011;43052;52.588;13.396;2022-08-19T05:30:40;13.68;;;12.30;;
57191;SDS011;43052;52.588;13.396;2022-08-19T05:33:06;13.30;;;11.93;;
57191;SDS011;43052;52.588;13.396;2022-08-19T05:35:33;13.30;;;12.00;;
57191;SDS011;43052;52.588;13.396;2022-08-19T05:38:01;13.07;;;11.88;;
57191;SDS011;43052;52.588;13.396;2022-08-19T05:40:27;13.38;;;12.07;;
57191;SDS011;43052;52.588;13.396;2022-08-19T05:42:52;12.63;;;11.27;;
57191;SDS011;43052;52.588;13.396;2022-08-19T05:45:18;12.82;;;11.65;;
57191;SDS011;43052;52.588;13.396;2022-08-19T05:47:43;12.02;;;10.82;;
57191;SDS011;43052;52.588;13.396;2022-08-19T05:50:09;19.70;;;18.20;;
57191;SDS011;43052;52.588;13.396;2022-08-19T05:52:36;12.90;;;11.52;;
57191;SDS011;43052;52.588;13.396;2022-08-19T05:55:03;12.10;;;10.90;;
57191;SDS011;43052;52.588;13.396;2022-08-19T05:57:28;11.27;;;10.13;;
57191;SDS011;43052;52.588;13.396;2022-08-19T05:59:55;12.85;;;11.60;;
57191;SDS011;43052;52.588;13.396;2022-08-19T06:02:21;11.75;;;10.65;;
57191;SDS011;43052;52.588;13.396;2022-08-19T06:04:47;12.48;;;11.27;;
57191;SDS011;43052;52.588;13.396;2022-08-19T06:07:12;12.48;;;11.27;;
57191;SDS011;43052;52.588;13.396;2022-08-19T06:09:37;13.00;;;11.80;;
57191;SDS011;43052;52.588;13.396;2022-08-19T06:12:02;13.27;;;12.05;;
57191;SDS011;43052;52.588;13.396;2022-08-19T06:14:30;13.38;;;12.15;;
57191;SDS011;43052;52.588;13.396;2022-08-19T06:16:57;13.85;;;12.48;;
57191;SDS011;43052;52.588;13.396;2022-08-19T06:19:25;13.68;;;12.25;;
57191;SDS011;43052;52.588;13.396;2022-08-19T06:21:51;15.05;;;13.45;;
57191;SDS011;43052;52.588;13.396;2022-08-19T06:24:19;14.68;;;13.35;;
57191;SDS011;43052;52.588;13.396;2022-08-19T06:26:48;15.93;;;14.43;;
57191;SDS011;43052;52.588;13.396;2022-08-19T06:29:15;15.48;;;13.88;;
57191;SDS011;43052;52.588;13.396;2022-08-19T06:31:43;15.07;;;13.65;;
57191;SDS011;43052;52.588;13.396;2022-08-19T06:34:11;15.23;;;13.63;;
57191;SDS011;43052;52.588;13.396;2022-08-19T06:36:38;15.35;;;13.85;;
57191;SDS011;43052;52.588;13.396;2022-08-19T06:39:09;16.17;;;14.57;;
57191;SDS011;43052;52.588;13.396;2022-08-19T06:41:41;16.73;;;15.13;;
57191;SDS011;43052;52.588;13.396;2022-08-19T06:44:08;16.17;;;14.57;;
57191;SDS011;43052;52.588;13.396;2022-08-19T06:46:35;15.65;;;14.15;;
57191;SDS011;43052;52.588;13.396;2022-08-19T06:49:01;16.52;;;14.90;;
57191;SDS011;43052;52.588;13.396;2022-08-19T06:51:26;16.60;;;15.07;;
57191;SDS011;43052;52.588;13.396;2022-08-19T06:53:52;17.08;;;15.52;;
57191;SDS011;43052;52.588;13.396;2022-08-19T06:56:19;16.30;;;14.70;;
57191;SDS011;43052;52.588;13.396;2022-08-19T06:58:47;15.93;;;14.43;;
57191;SDS011;43052;52.588;13.396;2022-08-19T07:01:15;17.67;;;15.93;;
57191;SDS011;43052;52.588;13.396;2022-08-19T07:03:40;17.83;;;16.13;;
57191;SDS011;43052;52.588;13.396;2022-08-19T07:06:06;17.15;;;15.27;;
57191;SDS011;43052;52.588;13.396;2022-08-19T07:08:34;18.33;;;16.48;;
57191;SDS011;43052;52.588;13.396;2022-08-19T07:11:01;18.23;;;16.35;;
57191;SDS011;43052;52.588;13.396;2022-08-19T07:13:27;17.85;;;16.17;;
57191;SDS011;43052;52.588;13.396;2022-08-19T07:15:52;19.08;;;17.27;;
57191;SDS011;43052;52.588;13.396;2022-08-19T07:18:18;18.42;;;16.80;;
57191;SDS011;43052;52.588;13.396;2022-08-19T07:20:45;18.92;;;17.05;;
57191;SDS011;43052;52.588;13.396;2022-08-19T07:23:10;18.70;;;16.90;;
57191;SDS011;43052;52.588;13.396;2022-08-19T07:25:37;19.13;;;17.20;;
57191;SDS011;43052;52.588;13.396;2022-08-19T07:28:03;19.05;;;17.25;;
57191;SDS011;43052;52.588;13.396;2022-08-19T07:30:29;18.05;;;16.38;;
57191;SDS011;43052;52.588;13.396;2022-08-19T07:32:55;19.00;;;17.20;;
57191;SDS011;43052;52.588;13.396;2022-08-19T07:35:21;19.67;;;17.65;;
57191;SDS011;43052;52.588;13.396;2022-08-19T07:37:46;19.48;;;17.67;;
57191;SDS011;43052;52.588;13.396;2022-08-19T07:40:12;18.15;;;16.45;;
57191;SDS011;43052;52.588;13.396;2022-08-19T07:42:38;19.90;;;17.98;;
57191;SDS011;43052;52.588;13.396;2022-08-19T07:45:03;19.23;;;17.42;;
57191;SDS011;43052;52.588;13.396;2022-08-19T07:47:30;18.67;;;16.88;;
57191;SDS011;43052;52.588;13.396;2022-08-19T07:49:55;19.60;;;17.77;;
57191;SDS011;43052;52.588;13.396;2022-08-19T07:52:21;19.42;;;17.63;;
57191;SDS011;43052;52.588;13.396;2022-08-19T07:54:47;19.70;;;17.80;;
57191;SDS011;43052;52.588;13.396;2022-08-19T07:57:12;19.25;;;17.45;;
57191;SDS011;43052;52.588;13.396;2022-08-19T07:59:38;18.85;;;17.10;;
57191;SDS011;43052;52.588;13.396;2022-08-19T08:02:05;19.08;;;17.27;;
57191;SDS011;43052;52.588;13.396;2022-08-19T08:04:30;18.70;;;16.80;;
57191;SDS011;43052;52.588;13.396;2022-08-19T08:07:14;20.30;;;18.50;;
57191;SDS011;43052;52.588;13.396;2022-08-19T08:09:58;20.45;;;18.08;;
57191;SDS011;43052;52.588;13.396;2022-08-19T08:12:29;20.90;;;18.90;;
57191;SDS011;43052;52.588;13.396;2022-08-19T08:14:59;20.45;;;18.58;;
57191;SDS011;43052;52.588;13.396;2022-08-19T08:17:29;20.67;;;18.77;;
57191;SDS011;43052;52.588;13.396;2022-08-19T08:19:56;20.08;;;18.10;;
57191;SDS011;43052;52.588;13.396;2022-08-19T08:22:22;20.83;;;18.67;;
57191;SDS011;43052;52.588;13.396;2022-08-19T08:25:11;19.80;;;17.90;;
57191;SDS011;43052;52.588;13.396;2022-08-19T08:27:39;20.45;;;18.52;;
57191;SDS011;43052;52.588;13.396;2022-08-19T08:30:10;20.50;;;18.50;;
57191;SDS011;43052;52.588;13.396;2022-08-19T08:32:40;21.50;;;19.52;;
57191;SDS011;43052;52.588;13.396;2022-08-19T08:35:06;21.23;;;19.13;;
57191;SDS011;43052;52.588;13.396;2022-08-19T08:37:34;20.80;;;19.00;;
57191;SDS011;43052;52.588;13.396;2022-08-19T08:40:02;20.75;;;18.65;;
57191;SDS011;43052;52.588;13.396;2022-08-19T08:42:32;21.30;;;19.35;;
57191;SDS011;43052;52.588;13.396;2022-08-19T08:45:10;21.00;;;19.10;;
57191;SDS011;43052;52.588;13.396;2022-08-19T08:47:41;21.33;;;19.25;;
57191;SDS011;43052;52.588;13.396;2022-08-19T08:50:16;20.90;;;18.98;;
57191;SDS011;43052;52.588;13.396;2022-08-19T08:52:48;20.55;;;18.65;;
57191;SDS011;43052;52.588;13.396;2022-08-19T08:55:17;19.38;;;17.50;;
57191;SDS011;43052;52.588;13.396;2022-08-19T08:57:51;19.80;;;18.00;;
57191;SDS011;43052;52.588;13.396;2022-08-19T09:00:33;20.00;;;17.98;;
57191;SDS011;43052;52.588;13.396;2022-08-19T09:03:02;19.23;;;17.42;;
57191;SDS011;43052;52.588;13.396;2022-08-19T09:05:42;18.40;;;16.55;;
57191;SDS011;43052;52.588;13.396;2022-08-19T09:08:24;18.85;;;17.20;;
57191;SDS011;43052;52.588;13.396;2022-08-19T09:14:08;18.20;;;16.40;;
57191;SDS011;43052;52.588;13.396;2022-08-19T09:16:41;18.20;;;16.48;;
57191;SDS011;43052;52.588;13.396;2022-08-19T09:19:08;17.42;;;15.70;;
57191;SDS011;43052;52.588;13.396;2022-08-19T09:21:35;18.27;;;16.42;;
57191;SDS011;43052;52.588;13.396;2022-08-19T09:24:01;17.02;;;15.43;;
57191;SDS011;43052;52.588;13.396;2022-08-19T09:26:27;15.35;;;13.88;;
57191;SDS011;43052;52.588;13.396;2022-08-19T09:28:53;14.55;;;13.15;;
57191;SDS011;43052;52.588;13.396;2022-08-19T09:31:20;13.60;;;12.23;;
57191;SDS011;43052;52.588;13.396;2022-08-19T09:33:49;14.32;;;12.95;;
57191;SDS011;43052;52.588;13.396;2022-08-19T09:36:16;14.98;;;13.48;;
57191;SDS011;43052;52.588;13.396;2022-08-19T09:38:43;14.25;;;12.85;;
57191;SDS011;43052;52.588;13.396;2022-08-19T09:41:10;14.23;;;12.93;;
57191;SDS011;43052;52.588;13.396;2022-08-19T09:43:41;14.25;;;13.02;;
57191;SDS011;43052;52.588;13.396;2022-08-19T09:46:08;15.52;;;14.13;;
57191;SDS011;43052;52.588;13.396;2022-08-19T09:48:37;15.48;;;13.95;;
57191;SDS011;43052;52.588;13.396;2022-08-19T09:51:06;14.63;;;13.25;;
57191;SDS011;43052;52.588;13.396;2022-08-19T09:53:36;15.05;;;13.55;;
57191;SDS011;43052;52.588;13.396;2022-08-19T09:56:03;13.52;;;12.35;;
57191;SDS011;43052;52.588;13.396;2022-08-19T09:58:30;13.82;;;12.52;;
57191;SDS011;43052;52.588;13.396;2022-08-19T10:00:57;13.38;;;12.15;;
57191;SDS011;43052;52.588;13.396;2022-08-19T10:03:23;14.82;;;13.20;;
57191;SDS011;43052;52.588;13.396;2022-08-19T10:05:50;13.85;;;12.60;;
57191;SDS011;43052;52.588;13.396;2022-08-19T10:08:17;14.10;;;12.75;;
57191;SDS011;43052;52.588;13.396;2022-08-19T10:10:46;16.30;;;13.50;;
57191;SDS011;43052;52.588;13.396;2022-08-19T10:13:13;15.30;;;13.70;;
57191;SDS011;43052;52.588;13.396;2022-08-19T10:15:41;13.45;;;12.20;;
57191;SDS011;43052;52.588;13.396;2022-08-19T10:18:07;14.63;;;13.32;;
57191;SDS011;43052;52.588;13.396;2022-08-19T10:20:32;15.27;;;13.77;;
57191;SDS011;43052;52.588;13.396;2022-08-19T10:23:00;15.55;;;13.93;;
57191;SDS011;43052;52.588;13.396;2022-08-19T10:25:26;15.38;;;13.88;;
57191;SDS011;43052;52.588;13.396;2022-08-19T10:27:51;15.63;;;14.10;;
57191;SDS011;43052;52.588;13.396;2022-08-19T10:30:17;15.93;;;14.43;;
57191;SDS011;43052;52.588;13.396;2022-08-19T10:32:43;16.63;;;15.02;;
57191;SDS011;43052;52.588;13.396;2022-08-19T10:35:10;16.25;;;14.75;;
57191;SDS011;43052;52.588;13.396;2022-08-19T10:37:36;17.02;;;14.48;;
57191;SDS011;43052;52.588;13.396;2022-08-19T10:40:03;15.82;;;14.32;;
57191;SDS011;43052;52.588;13.396;2022-08-19T10:42:31;15.60;;;14.20;;
57191;SDS011;43052;52.588;13.396;2022-08-19T10:44:57;15.45;;;14.15;;
57191;SDS011;43052;52.588;13.396;2022-08-19T10:47:22;15.52;;;14.13;;
57191;SDS011;43052;52.588;13.396;2022-08-19T10:49:51;14.82;;;13.35;;
57191;SDS011;43052;52.588;13.396;2022-08-19T10:52:35;14.85;;;13.45;;
57191;SDS011;43052;52.588;13.396;2022-08-19T10:55:04;14.85;;;13.48;;
57191;SDS011;43052;52.588;13.396;2022-08-19T10:57:49;15.32;;;13.85;;
57191;SDS011;43052;52.588;13.396;2022-08-19T11:00:14;14.65;;;13.18;;
57191;SDS011;43052;52.588;13.396;2022-08-19T11:02:40;15.73;;;14.23;;
57191;SDS011;43052;52.588;13.396;2022-08-19T11:05:06;15.52;;;14.05;;
57191;SDS011;43052;52.588;13.396;2022-08-19T11:07:32;15.88;;;14.38;;
57191;SDS011;43052;52.588;13.396;2022-08-19T11:09:57;15.00;;;13.60;;
57191;SDS011;43052;52.588;13.396;2022-08-19T11:12:23;15.15;;;13.55;;
57191;SDS011;43052;52.588;13.396;2022-08-19T11:14:49;15.20;;;13.70;;
57191;SDS011;43052;52.588;13.396;2022-08-19T11:17:14;15.65;;;14.05;;
57191;SDS011;43052;52.588;13.396;2022-08-19T11:19:40;14.75;;;13.35;;
57191;SDS011;43052;52.588;13.396;2022-08-19T11:22:07;15.48;;;13.82;;
57191;SDS011;43052;52.588;13.396;2022-08-19T11:24:34;14.80;;;13.40;;
57191;SDS011;43052;52.588;13.396;2022-08-19T11:27:01;14.23;;;12.82;;
57191;SDS011;43052;52.588;13.396;2022-08-19T11:29:32;14.70;;;13.18;;
57191;SDS011;43052;52.588;13.396;2022-08-19T11:31:59;14.60;;;13.10;;
57191;SDS011;43052;52.588;13.396;2022-08-19T11:34:27;16.83;;;14.35;;
57191;SDS011;43052;52.588;13.396;2022-08-19T11:36:53;14.43;;;13.07;;
57191;SDS011;43052;52.588;13.396;2022-08-19T11:39:21;14.48;;;13.13;;
57191;SDS011;43052;52.588;13.396;2022-08-19T11:41:47;14.57;;;13.05;;
57191;SDS011;43052;52.588;13.396;2022-08-19T11:44:12;14.25;;;12.52;;
57191;SDS011;43052;52.588;13.396;2022-08-19T11:46:39;16.83;;;12.48;;
57191;SDS011;43052;52.588;13.396;2022-08-19T11:49:05;13.60;;;12.20;;
57191;SDS011;43052;52.588;13.396;2022-08-19T11:51:34;13.85;;;12.35;;
57191;SDS011;43052;52.588;13.396;2022-08-19T11:53:59;13.80;;;12.35;;
57191;SDS011;43052;52.588;13.396;2022-08-19T11:56:25;13.10;;;11.85;;
57191;SDS011;43052;52.588;13.396;2022-08-19T11:58:52;13.38;;;12.07;;
57191;SDS011;43052;52.588;13.396;2022-08-19T12:01:20;13.45;;;12.05;;
57191;SDS011;43052;52.588;13.396;2022-08-19T12:03:47;12.90;;;11.60;;
57191;SDS011;43052;52.588;13.396;2022-08-19T12:06:15;12.40;;;11.13;;
57191;SDS011;43052;52.588;13.396;2022-08-19T12:08:42;11.80;;;10.60;;
57191;SDS011;43052;52.588;13.396;2022-08-19T12:11:09;12.05;;;10.80;;
57191;SDS011;43052;52.588;13.396;2022-08-19T12:13:36;12.13;;;11.07;;
57191;SDS011;43052;52.588;13.396;2022-08-19T12:16:09;14.13;;;11.13;;
57191;SDS011;43052;52.588;13.396;2022-08-19T12:18:36;10.70;;;9.60;;
57191;SDS011;43052;52.588;13.396;2022-08-19T12:21:02;11.00;;;9.73;;
57191;SDS011;43052;52.588;13.396;2022-08-19T12:23:28;14.13;;;9.63;;
57191;SDS011;43052;52.588;13.396;2022-08-19T12:25:53;10.43;;;9.43;;
57191;SDS011;43052;52.588;13.396;2022-08-19T12:28:19;11.95;;;9.48;;
57191;SDS011;43052;52.588;13.396;2022-08-19T12:30:46;13.38;;;9.82;;
57191;SDS011;43052;52.588;13.396;2022-08-19T12:33:12;9.32;;;8.52;;
57191;SDS011;43052;52.588;13.396;2022-08-19T12:35:42;10.40;;;8.77;;
57191;SDS011;43052;52.588;13.396;2022-08-19T12:38:08;9.20;;;8.30;;
57191;SDS011;43052;52.588;13.396;2022-08-19T12:40:34;10.80;;;9.70;;
57191;SDS011;43052;52.588;13.396;2022-08-19T12:42:59;9.88;;;8.88;;
57191;SDS011;43052;52.588;13.396;2022-08-19T12:45:25;12.48;;;9.63;;
57191;SDS011;43052;52.588;13.396;2022-08-19T12:47:50;11.52;;;10.35;;
57191;SDS011;43052;52.588;13.396;2022-08-19T12:50:17;11.13;;;10.02;;
57191;SDS011;43052;52.588;13.396;2022-08-19T12:52:43;11.35;;;10.15;;
57191;SDS011;43052;52.588;13.396;2022-08-19T12:55:08;10.48;;;9.48;;
57191;SDS011;43052;52.588;13.396;2022-08-19T12:57:35;11.20;;;10.20;;
57191;SDS011;43052;52.588;13.396;2022-08-19T13:02:34;11.93;;;10.80;;
57191;SDS011;43052;52.588;13.396;2022-08-19T13:04:59;10.77;;;9.77;;
57191;SDS011;43052;52.588;13.396;2022-08-19T13:07:25;11.32;;;10.20;;
57191;SDS011;43052;52.588;13.396;2022-08-19T13:09:51;12.50;;;11.13;;
57191;SDS011;43052;52.588;13.396;2022-08-19T13:12:16;11.63;;;10.52;;
57191;SDS011;43052;52.588;13.396;2022-08-19T13:14:44;11.80;;;10.75;;
57191;SDS011;43052;52.588;13.396;2022-08-19T13:17:14;11.77;;;10.65;;
57191;SDS011;43052;52.588;13.396;2022-08-19T13:19:40;11.00;;;10.00;;
57191;SDS011;43052;52.588;13.396;2022-08-19T13:22:05;11.77;;;10.68;;
57191;SDS011;43052;52.588;13.396;2022-08-19T13:24:30;11.57;;;10.57;;
57191;SDS011;43052;52.588;13.396;2022-08-19T13:26:56;12.43;;;11.23;;
57191;SDS011;43052;52.588;13.396;2022-08-19T13:29:21;12.15;;;10.95;;
57191;SDS011;43052;52.588;13.396;2022-08-19T13:32:05;12.13;;;11.03;;
57191;SDS011;43052;52.588;13.396;2022-08-19T13:34:49;12.23;;;11.00;;
57191;SDS011;43052;52.588;13.396;2022-08-19T13:37:14;11.82;;;10.60;;
57191;SDS011;43052;52.588;13.396;2022-08-19T13:39:40;12.63;;;11.43;;
57191;SDS011;43052;52.588;13.396;2022-08-19T13:42:05;11.90;;;10.77;;
57191;SDS011;43052;52.588;13.396;2022-08-19T13:44:32;11.80;;;10.73;;
57191;SDS011;43052;52.588;13.396;2022-08-19T13:47:01;12.45;;;11.25;;
57191;SDS011;43052;52.588;13.396;2022-08-19T13:49:32;11.85;;;10.73;;
57191;SDS011;43052;52.588;13.396;2022-08-19T13:51:58;12.68;;;11.48;;
57191;SDS011;43052;52.588;13.396;2022-08-19T13:54:24;12.45;;;11.25;;
57191;SDS011;43052;52.588;13.396;2022-08-19T13:56:49;11.82;;;10.75;;
57191;SDS011;43052;52.588;13.396;2022-08-19T13:59:14;13.07;;;11.80;;
57191;SDS011;43052;52.588;13.396;2022-08-19T14:01:40;12.32;;;11.23;;
57191;SDS011;43052;52.588;13.396;2022-08-19T14:04:06;12.00;;;10.80;;
57191;SDS011;43052;52.588;13.396;2022-08-19T14:06:32;11.82;;;10.73;;
57191;SDS011;43052;52.588;13.396;2022-08-19T14:08:58;11.75;;;10.65;;
57191;SDS011;43052;52.588;13.396;2022-08-19T14:11:23;11.50;;;10.40;;
57191;SDS011;43052;52.588;13.396;2022-08-19T14:13:49;12.52;;;11.43;;
57191;SDS011;43052;52.588;13.396;2022-08-19T14:16:15;11.73;;;10.70;;